YTRE

Details ICAO YTRE (TRO)
Name Taree
Region Australia
Timezone Australia/Sydney (UTC+10.0)
Plans Departing 5
Arriving 8
Stats Elevation 37 ft / 11 m (AMSL)
Location -31.887184° 152.512665°
Runways 2
Magnetic Variation 12.280° E
Sunrise 2018-05-27 20:40:40 UTC / 2018-05-28 06:40:40 Local
Sunset 2018-05-28 06:56:34 UTC / 2018-05-28 16:56:34 Local
Advertisement - Login to hide

Runways

ID Width Length Bearing (true) Bearing (mag) Surface Threshold Offset Overrun Length
04 98 ft / 30 m 4,946 ft / 1,508 m 44.90° 32.62° Asphalt 384 ft / 117 m 0 ft / 0 m
12 164 ft / 50 m 2,249 ft / 685 m 138.19° 125.91° Grass 0 ft / 0 m 0 ft / 0 m
22 98 ft / 30 m 4,946 ft / 1,508 m 224.90° 212.62° Asphalt 0 ft / 0 m 0 ft / 0 m
30 164 ft / 50 m 2,249 ft / 685 m 318.18° 305.90° Grass 0 ft / 0 m 0 ft / 0 m

Map

Weather


0- 5 10 15 20 25 30 35+ Temperature / ° C

Clouds and Precipitation
Forecast for 2018-05-28 00:00 UTC. Updated 7 hours ago

Ground ~20,000 ft ~40,000 ft Winds

METAR

Not found

TAF

TAF YTRE 280043Z 2802/2814 02007KT 9999 FEW040 FM281000 30003KT CAVOK

Frequencies

Unicom 122.40 MHz ACTIVATE LIGHTS ONLY MULT
Tower 120.55 MHz BRISBANE CNTR
Unicom 118.10 MHz TAREE MULT
Warning: Do not use this data for real-world aviation or navigation. No guarantee of current accuracy is given.